sensor_id;sensor_type;location;lat;lon;timestamp;temperature;humidity
34522;DHT22;25561;48.888;8.736;2022-08-03T05:31:14;21.70;99.90
34522;DHT22;25561;48.888;8.736;2022-08-03T05:34:16;21.90;99.90
34522;DHT22;25561;48.888;8.736;2022-08-03T05:37:18;22.10;99.90
34522;DHT22;25561;48.888;8.736;2022-08-03T05:40:20;22.00;99.90
34522;DHT22;25561;48.888;8.736;2022-08-03T05:43:22;22.10;99.90
34522;DHT22;25561;48.888;8.736;2022-08-03T05:46:24;22.80;99.90
34522;DHT22;25561;48.888;8.736;2022-08-03T05:49:25;24.00;99.90
34522;DHT22;25561;48.888;8.736;2022-08-03T05:52:27;25.20;99.90
34522;DHT22;25561;48.888;8.736;2022-08-03T05:55:29;25.90;99.90
34522;DHT22;25561;48.888;8.736;2022-08-03T05:58:31;27.20;99.90
34522;DHT22;25561;48.888;8.736;2022-08-03T06:01:33;29.50;99.90
34522;DHT22;25561;48.888;8.736;2022-08-03T06:04:35;30.50;99.20
34522;DHT22;25561;48.888;8.736;2022-08-03T06:07:37;31.10;97.20
34522;DHT22;25561;48.888;8.736;2022-08-03T06:10:39;32.90;93.90
34522;DHT22;25561;48.888;8.736;2022-08-03T06:49:45;34.20;79.70
34522;DHT22;25561;48.888;8.736;2022-08-03T06:53:07;35.50;76.70
34522;DHT22;25561;48.888;8.736;2022-08-03T06:56:19;36.50;73.70
34522;DHT22;25561;48.888;8.736;2022-08-03T06:59:22;35.40;74.20
34522;DHT22;25561;48.888;8.736;2022-08-03T07:02:44;35.10;74.60
34522;DHT22;25561;48.888;8.736;2022-08-03T07:05:46;35.40;73.20
34522;DHT22;25561;48.888;8.736;2022-08-03T07:08:47;34.90;75.10
34522;DHT22;25561;48.888;8.736;2022-08-03T07:11:54;36.20;69.70
34522;DHT22;25561;48.888;8.736;2022-08-03T07:14:58;36.90;68.10
34522;DHT22;25561;48.888;8.736;2022-08-03T07:18:03;37.60;66.10
34522;DHT22;25561;48.888;8.736;2022-08-03T07:21:05;37.70;63.90
34522;DHT22;25561;48.888;8.736;2022-08-03T07:24:08;37.60;64.00
34522;DHT22;25561;48.888;8.736;2022-08-03T07:27:10;37.90;62.30
34522;DHT22;25561;48.888;8.736;2022-08-03T07:30:13;37.70;61.80
34522;DHT22;25561;48.888;8.736;2022-08-03T07:33:15;37.30;62.10
34522;DHT22;25561;48.888;8.736;2022-08-03T07:36:17;38.00;60.90
34522;DHT22;25561;48.888;8.736;2022-08-03T07:39:19;38.30;60.40
34522;DHT22;25561;48.888;8.736;2022-08-03T07:42:20;38.20;60.00
34522;DHT22;25561;48.888;8.736;2022-08-03T07:45:24;38.30;59.40
34522;DHT22;25561;48.888;8.736;2022-08-03T07:48:27;37.50;59.70
34522;DHT22;25561;48.888;8.736;2022-08-03T07:51:29;37.70;60.10
34522;DHT22;25561;48.888;8.736;2022-08-03T07:54:30;37.60;59.30
34522;DHT22;25561;48.888;8.736;2022-08-03T07:57:33;37.60;59.40
34522;DHT22;25561;48.888;8.736;2022-08-03T08:00:35;37.70;59.30
34522;DHT22;25561;48.888;8.736;2022-08-03T08:03:37;38.60;58.50
34522;DHT22;25561;48.888;8.736;2022-08-03T08:06:54;39.10;57.30
34522;DHT22;25561;48.888;8.736;2022-08-03T08:09:55;37.70;58.60
34522;DHT22;25561;48.888;8.736;2022-08-03T08:12:58;37.50;58.80
34522;DHT22;25561;48.888;8.736;2022-08-03T08:16:00;37.50;58.70
34522;DHT22;25561;48.888;8.736;2022-08-03T08:19:02;38.00;58.30
34522;DHT22;25561;48.888;8.736;2022-08-03T08:22:04;38.10;57.70
34522;DHT22;25561;48.888;8.736;2022-08-03T08:25:07;38.30;57.60
34522;DHT22;25561;48.888;8.736;2022-08-03T08:28:09;38.40;57.10
34522;DHT22;25561;48.888;8.736;2022-08-03T08:31:31;38.60;56.70
34522;DHT22;25561;48.888;8.736;2022-08-03T08:34:33;39.60;55.70
34522;DHT22;25561;48.888;8.736;2022-08-03T08:37:35;39.30;56.60
34522;DHT22;25561;48.888;8.736;2022-08-03T08:40:37;40.70;53.90
34522;DHT22;25561;48.888;8.736;2022-08-03T08:43:40;41.00;53.70
34522;DHT22;25561;48.888;8.736;2022-08-03T08:46:43;41.80;52.80
34522;DHT22;25561;48.888;8.736;2022-08-03T08:49:46;41.90;51.60
34522;DHT22;25561;48.888;8.736;2022-08-03T08:53:10;42.20;51.00
34522;DHT22;25561;48.888;8.736;2022-08-03T08:56:22;41.00;52.40
34522;DHT22;25561;48.888;8.736;2022-08-03T08:59:26;41.20;52.10
34522;DHT22;25561;48.888;8.736;2022-08-03T09:02:48;41.00;51.90
34522;DHT22;25561;48.888;8.736;2022-08-03T09:05:50;40.60;51.70
34522;DHT22;25561;48.888;8.736;2022-08-03T09:08:56;40.60;52.20
34522;DHT22;25561;48.888;8.736;2022-08-03T09:11:58;40.70;52.50
34522;DHT22;25561;48.888;8.736;2022-08-03T09:15:26;40.90;52.60
34522;DHT22;25561;48.888;8.736;2022-08-03T09:18:28;40.50;51.60
34522;DHT22;25561;48.888;8.736;2022-08-03T09:21:33;40.30;51.60
34522;DHT22;25561;48.888;8.736;2022-08-03T09:24:36;37.60;54.70
34522;DHT22;25561;48.888;8.736;2022-08-03T09:27:43;38.30;55.10
34522;DHT22;25561;48.888;8.736;2022-08-03T09:30:57;39.70;53.10
34522;DHT22;25561;48.888;8.736;2022-08-03T09:34:03;40.70;51.20
34522;DHT22;25561;48.888;8.736;2022-08-03T09:37:12;39.80;52.20
34522;DHT22;25561;48.888;8.736;2022-08-03T09:40:33;40.00;52.30
34522;DHT22;25561;48.888;8.736;2022-08-03T09:43:45;40.40;50.40
34522;DHT22;25561;48.888;8.736;2022-08-03T09:46:50;40.60;50.20
34522;DHT22;25561;48.888;8.736;2022-08-03T09:49:58;41.60;49.40
34522;DHT22;25561;48.888;8.736;2022-08-03T09:53:02;41.50;49.90
34522;DHT22;25561;48.888;8.736;2022-08-03T09:56:04;41.30;48.50
34522;DHT22;25561;48.888;8.736;2022-08-03T09:59:31;41.00;49.80
34522;DHT22;25561;48.888;8.736;2022-08-03T10:02:33;41.80;48.30
34522;DHT22;25561;48.888;8.736;2022-08-03T10:05:35;40.90;49.40
34522;DHT22;25561;48.888;8.736;2022-08-03T10:08:38;41.20;48.70
34522;DHT22;25561;48.888;8.736;2022-08-03T10:11:42;41.20;48.40
34522;DHT22;25561;48.888;8.736;2022-08-03T10:14:45;41.00;48.00
34522;DHT22;25561;48.888;8.736;2022-08-03T10:17:47;41.60;47.70
34522;DHT22;25561;48.888;8.736;2022-08-03T10:20:51;41.30;47.50
34522;DHT22;25561;48.888;8.736;2022-08-03T10:23:55;41.00;47.70
34522;DHT22;25561;48.888;8.736;2022-08-03T10:27:03;41.40;47.20
34522;DHT22;25561;48.888;8.736;2022-08-03T10:30:07;41.50;47.30
34522;DHT22;25561;48.888;8.736;2022-08-03T10:33:16;41.80;46.80
34522;DHT22;25561;48.888;8.736;2022-08-03T10:36:39;41.00;47.70
34522;DHT22;25561;48.888;8.736;2022-08-03T10:39:43;39.90;48.20
34522;DHT22;25561;48.888;8.736;2022-08-03T10:42:56;39.80;48.40
34522;DHT22;25561;48.888;8.736;2022-08-03T10:46:01;40.10;46.40
34522;DHT22;25561;48.888;8.736;2022-08-03T10:49:04;39.80;47.30
34522;DHT22;25561;48.888;8.736;2022-08-03T10:52:06;38.60;49.30
34522;DHT22;25561;48.888;8.736;2022-08-03T10:55:30;39.30;47.70
34522;DHT22;25561;48.888;8.736;2022-08-03T10:58:53;40.10;47.30
34522;DHT22;25561;48.888;8.736;2022-08-03T11:01:58;40.30;46.50
34522;DHT22;25561;48.888;8.736;2022-08-03T11:05:25;40.00;47.30
34522;DHT22;25561;48.888;8.736;2022-08-03T11:08:31;39.70;48.20
34522;DHT22;25561;48.888;8.736;2022-08-03T11:11:37;40.00;47.00
34522;DHT22;25561;48.888;8.736;2022-08-03T11:14:47;39.80;46.70
34522;DHT22;25561;48.888;8.736;2022-08-03T11:18:07;40.00;46.60
34522;DHT22;25561;48.888;8.736;2022-08-03T11:21:12;40.00;46.10
34522;DHT22;25561;48.888;8.736;2022-08-03T11:27:39;39.10;46.50
34522;DHT22;25561;48.888;8.736;2022-08-03T11:30:41;39.50;46.40
34522;DHT22;25561;48.888;8.736;2022-08-03T11:34:05;39.00;47.30
34522;DHT22;25561;48.888;8.736;2022-08-03T11:37:23;39.30;46.40
34522;DHT22;25561;48.888;8.736;2022-08-03T11:46:38;38.20;48.00
34522;DHT22;25561;48.888;8.736;2022-08-03T11:49:40;37.90;47.40
34522;DHT22;25561;48.888;8.736;2022-08-03T11:52:42;36.60;49.50
34522;DHT22;25561;48.888;8.736;2022-08-03T11:55:46;35.80;50.40
34522;DHT22;25561;48.888;8.736;2022-08-03T11:58:52;35.50;50.30
34522;DHT22;25561;48.888;8.736;2022-08-03T12:02:14;35.50;50.90
34522;DHT22;25561;48.888;8.736;2022-08-03T12:05:17;34.90;52.20
34522;DHT22;25561;48.888;8.736;2022-08-03T12:11:29;36.00;51.00
34522;DHT22;25561;48.888;8.736;2022-08-03T12:14:31;35.90;50.70
34522;DHT22;25561;48.888;8.736;2022-08-03T12:17:52;35.30;51.30
34522;DHT22;25561;48.888;8.736;2022-08-03T12:21:07;34.80;51.90
34522;DHT22;25561;48.888;8.736;2022-08-03T12:24:09;34.60;52.30
34522;DHT22;25561;48.888;8.736;2022-08-03T12:27:11;34.50;52.40
34522;DHT22;25561;48.888;8.736;2022-08-03T12:30:13;34.60;53.00
34522;DHT22;25561;48.888;8.736;2022-08-03T12:33:17;34.90;52.70
34522;DHT22;25561;48.888;8.736;2022-08-03T12:36:20;35.10;53.10
34522;DHT22;25561;48.888;8.736;2022-08-03T12:39:23;35.00;53.00
34522;DHT22;25561;48.888;8.736;2022-08-03T12:42:34;35.00;51.70
34522;DHT22;25561;48.888;8.736;2022-08-03T12:45:36;34.40;52.70
34522;DHT22;25561;48.888;8.736;2022-08-03T12:48:57;34.50;53.40
34522;DHT22;25561;48.888;8.736;2022-08-03T12:51:59;34.30;52.80
34522;DHT22;25561;48.888;8.736;2022-08-03T12:55:18;34.00;53.20
34522;DHT22;25561;48.888;8.736;2022-08-03T12:58:32;33.80;54.00
34522;DHT22;25561;48.888;8.736;2022-08-03T13:01:36;33.90;53.80
34522;DHT22;25561;48.888;8.736;2022-08-03T13:04:38;34.00;53.10
34522;DHT22;25561;48.888;8.736;2022-08-03T13:07:42;33.90;53.30
34522;DHT22;25561;48.888;8.736;2022-08-03T13:10:47;34.10;53.20
34522;DHT22;25561;48.888;8.736;2022-08-03T13:13:50;34.30;53.60
34522;DHT22;25561;48.888;8.736;2022-08-03T13:16:52;34.50;53.00
34522;DHT22;25561;48.888;8.736;2022-08-03T13:19:54;34.80;52.60
34522;DHT22;25561;48.888;8.736;2022-08-03T13:22:56;34.60;52.40
34522;DHT22;25561;48.888;8.736;2022-08-03T13:26:01;34.40;53.00
34522;DHT22;25561;48.888;8.736;2022-08-03T13:29:03;34.30;53.40
34522;DHT22;25561;48.888;8.736;2022-08-03T13:32:06;34.30;53.00
34522;DHT22;25561;48.888;8.736;2022-08-03T13:35:09;34.00;53.60
34522;DHT22;25561;48.888;8.736;2022-08-03T13:38:11;33.90;53.90
34522;DHT22;25561;48.888;8.736;2022-08-03T13:41:15;34.00;53.70
34522;DHT22;25561;48.888;8.736;2022-08-03T13:44:18;34.00;53.50
34522;DHT22;25561;48.888;8.736;2022-08-03T13:47:31;34.40;53.50
34522;DHT22;25561;48.888;8.736;2022-08-03T13:50:33;34.80;53.40
34522;DHT22;25561;48.888;8.736;2022-08-03T13:53:35;35.00;52.60
34522;DHT22;25561;48.888;8.736;2022-08-03T13:56:36;34.60;52.70
34522;DHT22;25561;48.888;8.736;2022-08-03T13:59:38;34.10;53.80
34522;DHT22;25561;48.888;8.736;2022-08-03T14:02:40;34.20;53.60
34522;DHT22;25561;48.888;8.736;2022-08-03T14:05:43;34.40;53.30
34522;DHT22;25561;48.888;8.736;2022-08-03T14:08:45;34.50;52.90
34522;DHT22;25561;48.888;8.736;2022-08-03T14:11:48;34.50;53.30
34522;DHT22;25561;48.888;8.736;2022-08-03T14:15:09;34.30;53.30
34522;DHT22;25561;48.888;8.736;2022-08-03T14:18:11;34.30;53.10
34522;DHT22;25561;48.888;8.736;2022-08-03T14:21:16;34.30;52.60
34522;DHT22;25561;48.888;8.736;2022-08-03T14:24:18;34.40;52.90
34522;DHT22;25561;48.888;8.736;2022-08-03T14:27:20;34.60;53.30
34522;DHT22;25561;48.888;8.736;2022-08-03T14:30:21;34.10;53.30
34522;DHT22;25561;48.888;8.736;2022-08-03T14:33:24;34.00;53.80
34522;DHT22;25561;48.888;8.736;2022-08-03T14:36:26;34.00;53.70
34522;DHT22;25561;48.888;8.736;2022-08-03T14:39:28;34.40;53.40
34522;DHT22;25561;48.888;8.736;2022-08-03T14:42:49;34.60;53.00
34522;DHT22;25561;48.888;8.736;2022-08-03T14:45:52;34.60;53.10
34522;DHT22;25561;48.888;8.736;2022-08-03T14:48:54;34.30;53.10
34522;DHT22;25561;48.888;8.736;2022-08-03T14:52:16;34.30;53.40
34522;DHT22;25561;48.888;8.736;2022-08-03T14:55:17;34.40;53.30
34522;DHT22;25561;48.888;8.736;2022-08-03T14:58:22;34.40;53.20
34522;DHT22;25561;48.888;8.736;2022-08-03T15:01:24;34.30;53.30
34522;DHT22;25561;48.888;8.736;2022-08-03T15:04:45;34.40;53.00
34522;DHT22;25561;48.888;8.736;2022-08-03T15:07:47;34.50;53.40
34522;DHT22;25561;48.888;8.736;2022-08-03T15:10:50;34.50;53.50
34522;DHT22;25561;48.888;8.736;2022-08-03T15:13:52;34.50;53.50
34522;DHT22;25561;48.888;8.736;2022-08-03T15:16:54;34.40;53.30
34522;DHT22;25561;48.888;8.736;2022-08-03T15:19:56;34.30;53.60
34522;DHT22;25561;48.888;8.736;2022-08-03T15:23:04;34.10;53.50
34522;DHT22;25561;48.888;8.736;2022-08-03T15:26:06;34.10;53.70
34522;DHT22;25561;48.888;8.736;2022-08-03T15:29:28;34.10;53.90
34522;DHT22;25561;48.888;8.736;2022-08-03T15:32:49;34.20;53.70
34522;DHT22;25561;48.888;8.736;2022-08-03T15:35:51;34.10;53.80
34522;DHT22;25561;48.888;8.736;2022-08-03T15:38:53;34.00;53.80
34522;DHT22;25561;48.888;8.736;2022-08-03T15:41:55;33.60;54.30
34522;DHT22;25561;48.888;8.736;2022-08-03T15:44:57;33.70;54.80
34522;DHT22;25561;48.888;8.736;2022-08-03T15:47:59;33.70;54.60
34522;DHT22;25561;48.888;8.736;2022-08-03T15:51:02;33.60;54.40
34522;DHT22;25561;48.888;8.736;2022-08-03T15:54:05;33.60;54.70
34522;DHT22;25561;48.888;8.736;2022-08-03T15:57:07;33.60;54.70
34522;DHT22;25561;48.888;8.736;2022-08-03T16:00:09;33.40;55.20
